Time;durP1;ratioP1;P1;durP2;ratioP2;P2;SDS_P1;SDS_P2;PMS_P1;PMS_P2;Temp;Humidity;BMP_temperature;BMP_pressure;BME280_temperature;BME280_humidity;BME280_pressure;Samples;Min_cycle;Max_cycle;Signal;HPM_P1;HPM_P2
2023/09/16 00:01:53;;;;;;;13.70;8.40;;;;;;;15.87;76.60;100223.63;5069422;28;20534;-50
2023/09/16 00:04:21;;;;;;;15.35;8.75;;;;;;;15.83;76.83;100222.91;5071507;28;20043;-50
2023/09/16 00:06:47;;;;;;;12.95;9.45;;;;;;;15.81;77.33;100216.03;5075452;28;20091;-47
2023/09/16 00:09:13;;;;;;;15.18;9.45;;;;;;;15.79;77.61;100223.13;5077266;28;20076;-45
2023/09/16 00:11:43;;;;;;;13.35;9.25;;;;;;;15.73;77.96;100221.66;5069244;28;20040;-51
2023/09/16 00:14:18;;;;;;;12.25;8.60;;;;;;;15.74;77.84;100225.13;5058988;28;20048;-46
2023/09/16 00:16:45;;;;;;;14.65;9.38;;;;;;;15.72;78.25;100221.72;5061610;28;20054;-45
2023/09/16 00:19:12;;;;;;;11.30;8.07;;;;;;;15.71;78.53;100226.09;5078551;28;20500;-47
2023/09/16 00:21:40;;;;;;;12.15;9.05;;;;;;;15.68;78.94;100224.50;5062517;28;20047;-48
2023/09/16 00:24:06;;;;;;;10.57;8.50;;;;;;;15.65;78.88;100224.63;5080909;28;20063;-47
2023/09/16 00:26:34;;;;;;;11.27;8.65;;;;;;;15.61;79.16;100223.06;5075376;28;20515;-49
2023/09/16 00:29:00;;;;;;;11.67;9.00;;;;;;;15.44;79.23;100198.53;5072568;28;20040;-45
2023/09/16 00:31:27;;;;;;;12.18;8.18;;;;;;;15.57;79.56;100233.78;5071165;28;20052;-48
2023/09/16 00:33:53;;;;;;;13.30;8.70;;;;;;;15.55;79.47;100228.59;5075946;28;20093;-47
2023/09/16 00:36:19;;;;;;;12.05;8.55;;;;;;;15.45;79.68;100214.19;5078264;28;20050;-48
2023/09/16 00:38:44;;;;;;;16.00;9.05;;;;;;;15.41;79.87;100210.00;5077828;28;20036;-49
2023/09/16 00:41:12;;;;;;;12.10;8.65;;;;;;;15.56;79.99;100232.06;5051732;28;20048;-46
2023/09/16 00:43:39;;;;;;;14.65;9.15;;;;;;;15.52;80.10;100231.38;5046660;28;20421;-49
2023/09/16 00:46:05;;;;;;;14.73;8.80;;;;;;;15.59;79.95;100234.56;5072075;28;20048;-46
2023/09/16 00:48:31;;;;;;;14.20;9.10;;;;;;;15.44;79.94;100217.72;5077615;28;20063;-47
2023/09/16 00:50:57;;;;;;;15.00;9.50;;;;;;;15.60;80.08;100238.84;5075526;28;20040;-47
2023/09/16 00:53:23;;;;;;;14.20;8.55;;;;;;;15.61;79.76;100243.19;5076901;28;20512;-47
2023/09/16 00:55:49;;;;;;;13.23;8.85;;;;;;;15.36;79.72;100193.66;5077997;28;20075;-46
2023/09/16 00:58:17;;;;;;;14.00;8.93;;;;;;;15.63;79.79;100241.34;5070458;28;21005;-45
2023/09/16 01:00:45;;;;;;;14.35;9.07;;;;;;;15.65;80.24;100247.34;5070878;28;20068;-47
2023/09/16 01:03:11;;;;;;;15.65;9.35;;;;;;;15.64;80.27;100251.78;5063263;28;20563;-46
2023/09/16 01:05:37;;;;;;;13.73;9.82;;;;;;;15.64;80.24;100251.78;5080394;28;20470;-50
2023/09/16 01:08:04;;;;;;;17.17;9.88;;;;;;;15.64;80.34;100250.94;5057211;28;20045;-49
2023/09/16 01:10:30;;;;;;;13.75;10.00;;;;;;;15.49;80.48;100226.22;5073778;28;20097;-49
2023/09/16 01:12:57;;;;;;;14.27;9.40;;;;;;;15.63;80.55;100246.59;5045316;28;20041;-48
2023/09/16 01:15:27;;;;;;;14.20;9.13;;;;;;;15.60;80.64;100251.97;5063769;28;20052;-47
2023/09/16 01:18:14;;;;;;;13.68;8.77;;;;;;;15.61;80.95;100259.78;5038401;28;20449;-47
2023/09/16 01:20:40;;;;;;;14.90;8.60;;;;;;;15.62;80.57;100265.88;5062989;28;20101;-48
2023/09/16 01:23:07;;;;;;;12.25;8.15;;;;;;;15.46;80.58;100244.72;5055040;28;20514;-48
2023/09/16 01:25:33;;;;;;;11.27;8.40;;;;;;;15.61;80.61;100272.03;5058522;28;20080;-49
2023/09/16 01:27:59;;;;;;;11.43;7.85;;;;;;;15.63;80.43;100271.03;5076609;28;20591;-47
2023/09/16 01:30:26;;;;;;;10.55;8.05;;;;;;;15.64;80.28;100274.53;5077529;28;20157;-49
2023/09/16 01:33:41;;;;;;;12.85;7.82;;;;;;;15.62;80.37;100274.56;5068227;28;20043;-46
2023/09/16 01:36:14;;;;;;;11.73;8.43;;;;;;;15.63;80.39;100280.69;5001051;28;20044;-46
2023/09/16 01:38:43;;;;;;;12.10;8.63;;;;;;;15.63;80.15;100285.91;5050308;28;20206;-45
2023/09/16 01:41:10;;;;;;;10.43;8.02;;;;;;;15.47;80.24;100266.53;5076769;28;20782;-43
2023/09/16 01:43:37;;;;;;;13.93;8.43;;;;;;;15.32;80.24;100236.63;5067933;28;20041;-46
2023/09/16 01:46:03;;;;;;;12.80;9.05;;;;;;;15.38;80.88;100252.09;5058454;28;20068;-47
2023/09/16 01:48:29;;;;;;;13.05;9.18;;;;;;;15.58;81.03;100291.38;5075650;28;20071;-50
2023/09/16 01:50:55;;;;;;;14.23;9.60;;;;;;;15.40;81.74;100262.47;5074878;28;20036;-49
2023/09/16 01:53:20;;;;;;;15.27;9.32;;;;;;;15.54;82.39;100294.19;5070958;28;20143;-51
2023/09/16 01:55:46;;;;;;;13.05;9.25;;;;;;;15.33;82.76;100272.41;5073851;28;20040;-47
2023/09/16 01:58:13;;;;;;;13.68;8.65;;;;;;;15.46;83.55;100298.88;5063264;28;20500;-50
2023/09/16 02:00:38;;;;;;;11.85;8.52;;;;;;;15.43;83.96;100297.28;5076717;28;20036;-50
2023/09/16 02:03:04;;;;;;;13.13;8.40;;;;;;;15.43;84.04;100299.91;5075142;28;20088;-48
2023/09/16 02:05:30;;;;;;;12.52;8.43;;;;;;;15.43;84.54;100302.50;5067878;28;20106;-49
2023/09/16 02:07:58;;;;;;;11.93;8.43;;;;;;;15.27;84.68;100273.53;5068692;28;20476;-48
2023/09/16 02:10:24;;;;;;;14.20;8.55;;;;;;;15.40;85.08;100299.16;5077566;28;20123;-51
2023/09/16 02:12:52;;;;;;;12.23;8.10;;;;;;;15.39;85.81;100305.31;5065318;28;20072;-49
2023/09/16 02:15:18;;;;;;;8.38;6.32;;;;;;;15.37;86.20;100313.25;5067366;28;20048;-48
2023/09/16 02:17:45;;;;;;;7.70;6.20;;;;;;;15.35;86.67;100315.09;5069764;28;20090;-44
2023/09/16 02:20:12;;;;;;;10.82;6.88;;;;;;;15.21;86.68;100299.13;5069088;28;20420;-46
2023/09/16 02:22:40;;;;;;;9.15;5.68;;;;;;;15.32;87.09;100315.22;5068405;28;20068;-46
2023/09/16 02:25:26;;;;;;;6.43;5.43;;;;;;;15.32;87.27;100312.63;5061467;28;20060;-47
2023/09/16 02:27:52;;;;;;;6.18;4.32;;;;;;;15.12;87.42;100282.06;5070930;28;20139;-47
2023/09/16 02:30:18;;;;;;;5.80;4.03;;;;;;;15.30;87.83;100309.19;5074497;28;20072;-46
2023/09/16 02:32:44;;;;;;;6.13;3.05;;;;;;;15.26;87.94;100303.25;5070904;28;20786;-48
2023/09/16 02:35:10;;;;;;;5.25;2.97;;;;;;;15.27;87.61;100318.06;5054133;28;20080;-50
2023/09/16 02:37:36;;;;;;;3.35;2.08;;;;;;;15.27;88.02;100325.06;5073362;28;20044;-50
2023/09/16 02:40:02;;;;;;;3.95;2.10;;;;;;;15.25;87.71;100324.25;5078338;28;20036;-48
2023/09/16 02:42:29;;;;;;;2.08;1.50;;;;;;;15.22;87.67;100327.88;5071059;28;20052;-50
2023/09/16 02:44:55;;;;;;;1.95;1.42;;;;;;;15.09;87.47;100316.22;5080792;28;20111;-45
2023/09/16 02:47:21;;;;;;;3.33;1.52;;;;;;;15.17;87.24;100323.75;5071011;28;20040;-50
2023/09/16 02:49:48;;;;;;;1.63;1.30;;;;;;;15.18;87.22;100328.91;5063743;28;20040;-50
2023/09/16 02:52:15;;;;;;;2.15;1.40;;;;;;;15.18;87.06;100333.28;5075736;28;20093;-47
2023/09/16 02:54:42;;;;;;;1.65;1.42;;;;;;;15.20;87.11;100328.84;5062581;28;21028;-49
2023/09/16 02:57:09;;;;;;;1.23;0.95;;;;;;;15.17;87.13;100337.72;5048506;28;20033;-50
2023/09/16 02:59:35;;;;;;;1.98;1.10;;;;;;;15.02;86.71;100311.31;5063714;28;20067;-47
2023/09/16 03:02:01;;;;;;;2.25;1.23;;;;;;;15.15;86.95;100341.28;5075975;28;20507;-49
2023/09/16 03:04:27;;;;;;;2.13;1.00;;;;;;;15.12;86.49;100339.66;5072035;28;20036;-47
2023/09/16 03:06:53;;;;;;;1.65;1.05;;;;;;;15.09;86.22;100344.16;5065461;28;20541;-52
2023/09/16 03:09:19;;;;;;;1.48;0.90;;;;;;;15.04;86.21;100340.91;5072412;28;20044;-47
2023/09/16 03:11:46;;;;;;;0.90;0.75;;;;;;;15.05;86.17;100347.84;5074993;28;20099;-46
2023/09/16 03:14:13;;;;;;;1.05;0.90;;;;;;;15.03;85.85;100342.66;5077582;28;20454;-48
2023/09/16 03:16:39;;;;;;;2.03;0.93;;;;;;;15.02;85.84;100363.69;5080114;28;20084;-47
2023/09/16 03:19:05;;;;;;;0.63;0.57;;;;;;;14.99;85.35;100364.66;5058758;28;20083;-47
2023/09/16 03:21:31;;;;;;;1.15;0.73;;;;;;;15.00;85.23;100369.00;5058435;28;20515;-48
2023/09/16 03:24:01;;;;;;;1.20;0.70;;;;;;;15.00;85.19;100373.38;5054515;28;20541;-50
2023/09/16 03:26:28;;;;;;;1.13;0.80;;;;;;;15.00;85.32;100370.75;5078668;28;20123;-46
2023/09/16 03:28:54;;;;;;;1.00;0.70;;;;;;;14.98;84.90;100373.41;5075382;28;20468;-47
2023/09/16 03:31:27;;;;;;;1.52;0.80;;;;;;;14.95;84.88;100380.56;5071356;28;20071;-49
2023/09/16 03:33:54;;;;;;;3.85;0.80;;;;;;;14.94;84.92;100376.22;5086816;28;20547;-46
2023/09/16 03:36:22;;;;;;;0.73;0.70;;;;;;;14.76;84.67;100346.41;5071525;28;20055;-49
2023/09/16 03:38:50;;;;;;;1.80;0.93;;;;;;;14.79;84.40;100357.63;5060977;28;20500;-47
2023/09/16 03:41:16;;;;;;;0.57;0.47;;;;;;;14.91;84.36;100374.63;5077284;28;20438;-45
2023/09/16 03:43:46;;;;;;;0.77;0.55;;;;;;;14.80;84.23;100354.09;5078013;28;20048;-45
2023/09/16 03:46:12;;;;;;;1.25;0.60;;;;;;;14.93;83.84;100379.75;5077691;28;20046;-49
2023/09/16 03:48:38;;;;;;;1.23;0.90;;;;;;;14.94;84.05;100379.72;5046267;28;20048;-51
2023/09/16 03:51:07;;;;;;;1.02;0.80;;;;;;;14.95;83.89;100388.41;5067243;28;20775;-47
2023/09/16 03:53:35;;;;;;;0.80;0.60;;;;;;;14.96;84.18;100387.50;5046475;28;20039;-50
2023/09/16 03:56:08;;;;;;;1.15;0.75;;;;;;;14.98;84.13;100385.66;5077048;28;20089;-50
2023/09/16 03:58:35;;;;;;;1.15;0.70;;;;;;;14.99;84.09;100388.22;5077116;28;20545;-46
2023/09/16 04:01:02;;;;;;;1.35;1.00;;;;;;;15.00;84.30;100389.09;5074022;28;20052;-48
2023/09/16 04:03:31;;;;;;;1.23;0.80;;;;;;;14.92;83.96;100376.28;5057794;28;20079;-48
2023/09/16 04:05:58;;;;;;;0.93;0.63;;;;;;;15.00;84.00;100396.94;5074012;28;20060;-46
2023/09/16 04:08:27;;;;;;;1.52;0.95;;;;;;;15.00;84.26;100394.31;5076766;28;20139;-47
2023/09/16 04:10:53;;;;;;;1.58;1.15;;;;;;;15.01;84.10;100389.03;5075824;28;20039;-49
2023/09/16 04:13:21;;;;;;;1.30;0.98;;;;;;;14.98;84.24;100397.00;5077497;28;20045;-45
2023/09/16 04:15:47;;;;;;;1.20;0.90;;;;;;;14.98;84.18;100398.75;5076077;28;20050;-50
2023/09/16 04:18:13;;;;;;;3.03;1.02;;;;;;;15.01;84.22;100402.13;5076665;28;20488;-47
2023/09/16 04:20:39;;;;;;;0.90;0.63;;;;;;;15.02;83.66;100403.81;5059245;28;20047;-46
2023/09/16 04:23:05;;;;;;;4.28;0.80;;;;;;;15.04;83.33;100404.59;5066108;28;20103;-46
2023/09/16 04:25:31;;;;;;;1.42;0.70;;;;;;;15.03;83.28;100404.66;5080013;28;20130;-46
2023/09/16 04:27:58;;;;;;;1.48;0.47;;;;;;;15.04;82.50;100416.84;5075465;28;20044;-48
2023/09/16 04:30:24;;;;;;;0.63;0.60;;;;;;;15.06;82.37;100412.41;5075545;28;20074;-51
2023/09/16 04:32:50;;;;;;;1.00;0.77;;;;;;;15.10;82.20;100419.22;5079913;28;20059;-50
2023/09/16 04:35:16;;;;;;;1.35;0.73;;;;;;;14.81;81.52;100363.63;5059640;28;20050;-51
2023/09/16 04:37:44;;;;;;;1.10;0.75;;;;;;;15.11;81.74;100421.78;5076464;28;20040;-47
2023/09/16 04:40:11;;;;;;;1.42;0.85;;;;;;;15.11;81.80;100427.00;5069114;28;20039;-48
2023/09/16 04:42:40;;;;;;;2.25;1.33;;;;;;;15.03;81.88;100413.38;5076112;28;20430;-47
2023/09/16 04:45:10;;;;;;;2.17;1.00;;;;;;;15.15;81.99;100428.59;5072594;28;20078;-49
2023/09/16 04:47:36;;;;;;;3.45;1.15;;;;;;;15.15;82.10;100438.22;5079346;28;20067;-47
2023/09/16 04:50:03;;;;;;;6.57;1.40;;;;;;;15.12;82.11;100439.22;5048131;28;20392;-50
2023/09/16 04:52:32;;;;;;;2.28;1.20;;;;;;;15.12;82.15;100433.97;5083249;28;20074;-49
2023/09/16 04:54:58;;;;;;;1.88;0.60;;;;;;;15.17;82.04;100439.88;5035807;28;20037;-50
2023/09/16 04:57:25;;;;;;;2.47;0.70;;;;;;;15.21;81.16;100443.19;5076906;28;20041;-48
2023/09/16 04:59:54;;;;;;;2.67;0.68;;;;;;;15.19;80.96;100439.78;5075195;28;20067;-50
2023/09/16 05:02:20;;;;;;;1.48;0.73;;;;;;;15.20;80.01;100444.13;5077974;28;20073;-48
2023/09/16 05:04:46;;;;;;;0.57;0.50;;;;;;;15.20;79.59;100447.59;5066759;28;20045;-50
2023/09/16 05:07:16;;;;;;;2.30;0.60;;;;;;;15.19;79.09;100443.25;5076479;28;20048;-49
2023/09/16 05:09:42;;;;;;;0.80;0.47;;;;;;;15.21;78.34;100453.69;5075862;28;20047;-47
2023/09/16 05:12:09;;;;;;;2.13;1.52;;;;;;;15.20;77.76;100457.22;5043057;28;20042;-46
2023/09/16 05:14:36;;;;;;;0.60;0.50;;;;;;;15.21;77.52;100459.78;5061054;28;20648;-46
2023/09/16 05:17:02;;;;;;;2.42;0.80;;;;;;;15.26;77.29;100451.72;5053503;28;20037;-46
2023/09/16 05:19:29;;;;;;;0.82;0.60;;;;;;;15.25;76.80;100458.72;5093839;28;20052;-48
2023/09/16 05:21:54;;;;;;;1.25;0.60;;;;;;;15.33;76.76;100462.81;5069463;28;20093;-46
2023/09/16 05:24:21;;;;;;;0.93;0.40;;;;;;;15.21;76.51;100441.44;5065918;28;20113;-52
2023/09/16 05:26:47;;;;;;;0.55;0.43;;;;;;;15.40;75.81;100470.34;5086159;28;20513;-49
2023/09/16 05:29:13;;;;;;;3.70;1.95;;;;;;;15.41;75.70;100466.81;5071556;28;20048;-50
2023/09/16 05:31:41;;;;;;;2.60;0.65;;;;;;;15.33;75.76;100463.66;5058376;28;20044;-47
2023/09/16 05:34:09;;;;;;;1.25;0.47;;;;;;;15.35;75.42;100471.44;5071375;28;20041;-48
2023/09/16 05:36:36;;;;;;;0.50;0.47;;;;;;;15.31;75.62;100481.22;5076920;28;20032;-48
2023/09/16 05:39:04;;;;;;;1.10;0.60;;;;;;;15.15;75.89;100457.41;5078715;28;20543;-51
2023/09/16 05:41:30;;;;;;;1.52;1.05;;;;;;;15.33;75.65;100483.78;5076991;28;20035;-49
2023/09/16 05:43:58;;;;;;;2.28;0.55;;;;;;;15.26;75.42;100470.91;5058596;28;20044;-45
2023/09/16 05:46:25;;;;;;;0.43;0.43;;;;;;;15.40;74.51;100482.59;5072544;28;20129;-47
2023/09/16 05:48:56;;;;;;;0.88;0.50;;;;;;;15.46;73.86;100491.06;5039771;28;20455;-47
2023/09/16 05:51:22;;;;;;;0.50;0.40;;;;;;;15.50;73.23;100494.38;5046817;28;20047;-46
2023/09/16 05:53:50;;;;;;;2.45;0.75;;;;;;;15.53;73.17;100494.31;5066672;28;20049;-49
2023/09/16 05:56:16;;;;;;;1.65;0.60;;;;;;;15.56;72.43;100492.41;5057223;28;20048;-47
2023/09/16 05:58:48;;;;;;;0.93;0.50;;;;;;;15.44;72.01;100471.91;5077154;28;20162;-45
2023/09/16 06:01:17;;;;;;;1.20;0.52;;;;;;;15.68;71.85;100502.38;5046207;28;20044;-46
2023/09/16 06:03:43;;;;;;;6.13;0.73;;;;;;;15.73;71.01;100494.31;5067799;28;20039;-45
2023/09/16 06:06:10;;;;;;;2.33;0.47;;;;;;;15.74;71.13;100498.66;5042211;28;20080;-49
2023/09/16 06:08:37;;;;;;;1.00;0.70;;;;;;;15.78;70.36;100510.72;5067359;28;20070;-51
2023/09/16 06:11:03;;;;;;;1.70;0.40;;;;;;;15.68;70.15;100488.41;5067438;28;20040;-51
2023/09/16 06:13:29;;;;;;;1.90;0.50;;;;;;;15.78;70.05;100515.09;5082556;28;20573;-48
2023/09/16 06:15:55;;;;;;;0.95;0.40;;;;;;;15.77;69.63;100511.63;5057991;28;20057;-45
2023/09/16 06:18:24;;;;;;;1.75;0.50;;;;;;;15.80;69.32;100521.16;5036010;28;20032;-47
2023/09/16 06:20:50;;;;;;;0.80;0.55;;;;;;;15.89;68.96;100524.22;5065340;28;20405;-49
2023/09/16 06:23:16;;;;;;;1.77;0.65;;;;;;;15.89;68.72;100500.63;5075324;28;20189;-49
2023/09/16 06:25:42;;;;;;;3.05;0.60;;;;;;;16.14;68.52;100523.16;5072553;28;20960;-50
2023/09/16 06:28:08;;;;;;;1.52;0.77;;;;;;;16.20;68.37;100533.38;5071388;28;20044;-49
2023/09/16 06:30:35;;;;;;;2.40;0.60;;;;;;;15.91;68.08;100490.91;5056839;28;20070;-46
2023/09/16 06:33:02;;;;;;;2.05;0.65;;;;;;;16.09;68.07;100539.09;5076040;28;20093;-49
2023/09/16 06:35:28;;;;;;;1.73;0.50;;;;;;;15.99;68.60;100543.03;5065878;28;20076;-44
2023/09/16 06:37:54;;;;;;;1.27;0.60;;;;;;;15.98;68.79;100547.44;5070195;28;20032;-46
2023/09/16 06:40:20;;;;;;;2.42;0.93;;;;;;;15.97;68.41;100552.72;5074382;28;20123;-46
2023/09/16 06:42:46;;;;;;;1.50;0.82;;;;;;;15.77;68.66;100531.75;5083031;28;20640;-48
2023/09/16 06:45:12;;;;;;;2.30;0.88;;;;;;;15.81;68.71;100557.78;5073186;28;20044;-48
2023/09/16 06:47:39;;;;;;;2.85;0.82;;;;;;;15.55;68.80;100532.63;5069547;28;20035;-54
2023/09/16 06:50:08;;;;;;;1.20;0.80;;;;;;;15.68;68.95;100564.44;5067383;28;20040;-51
2023/09/16 06:52:34;;;;;;;;;;;;;;;15.67;69.20;100563.59;5070965;28;20075;-47
2023/09/16 06:55:00;;;;;;;4.13;1.02;;;;;;;15.62;69.34;100564.69;5069571;28;19967;-48
2023/09/16 06:57:26;;;;;;;2.42;0.75;;;;;;;15.56;69.37;100576.28;5071546;28;20043;-46
2023/09/16 06:59:52;;;;;;;3.90;1.10;;;;;;;15.57;69.61;100575.38;5079926;28;20089;-45
2023/09/16 07:02:18;;;;;;;2.17;1.00;;;;;;;15.62;69.50;100572.56;5063560;28;20048;-45
2023/09/16 07:04:46;;;;;;;1.50;1.00;;;;;;;15.66;69.59;100571.50;5072396;28;20037;-47
2023/09/16 07:07:12;;;;;;;3.17;0.70;;;;;;;15.76;69.26;100570.22;5080922;28;20052;-49
2023/09/16 07:09:39;;;;;;;1.40;0.90;;;;;;;15.82;68.88;100538.50;5073673;28;20586;-50
2023/09/16 07:12:06;;;;;;;1.27;0.55;;;;;;;16.19;67.54;100571.88;5084761;28;20048;-46
2023/09/16 07:14:32;;;;;;;0.63;0.50;;;;;;;16.48;66.66;100571.47;5060554;28;20044;-45
2023/09/16 07:16:58;;;;;;;3.60;2.13;;;;;;;16.68;65.57;100573.25;5072818;28;20400;-47
2023/09/16 07:19:24;;;;;;;3.38;0.60;;;;;;;16.76;64.77;100573.72;5070906;28;20044;-44
2023/09/16 07:21:50;;;;;;;1.08;0.82;;;;;;;16.79;64.60;100571.00;5057349;28;20428;-46
2023/09/16 07:24:16;;;;;;;1.48;0.70;;;;;;;16.81;64.11;100561.25;5066932;28;20048;-42
2023/09/16 07:26:44;;;;;;;4.40;0.80;;;;;;;16.99;63.54;100569.19;5066039;28;20132;-48
2023/09/16 07:29:10;;;;;;;1.80;0.90;;;;;;;17.05;63.38;100566.28;5067229;28;20086;-49
2023/09/16 07:31:36;;;;;;;1.98;1.02;;;;;;;17.04;62.98;100575.94;5066569;28;20052;-51
2023/09/16 07:34:02;;;;;;;4.13;1.10;;;;;;;16.99;62.57;100571.81;5067708;28;20048;-45
2023/09/16 07:36:28;;;;;;;3.00;0.90;;;;;;;16.92;62.83;100576.50;5071002;28;20515;-53
2023/09/16 07:38:54;;;;;;;4.93;1.20;;;;;;;16.92;62.64;100576.50;5053608;28;20094;-46
2023/09/16 07:41:22;;;;;;;7.00;1.15;;;;;;;16.82;62.57;100576.09;5071073;28;20048;-44
2023/09/16 07:43:48;;;;;;;7.28;1.35;;;;;;;16.84;62.32;100583.91;5082092;28;20036;-43
2023/09/16 07:46:14;;;;;;;1.90;0.90;;;;;;;16.86;62.81;100588.16;5071484;28;20094;-42
2023/09/16 07:48:39;;;;;;;6.18;1.48;;;;;;;16.83;62.67;100595.31;5076897;28;20495;-46
2023/09/16 07:51:06;;;;;;;0.65;0.63;;;;;;;16.82;62.39;100591.00;5064243;28;20036;-46
2023/09/16 07:53:31;;;;;;;2.67;1.00;;;;;;;16.74;62.47;100591.34;5076317;28;20044;-43
2023/09/16 07:55:57;;;;;;;2.28;1.10;;;;;;;16.68;62.36;100596.88;5062810;28;20424;-42
2023/09/16 07:58:23;;;;;;;3.80;1.00;;;;;;;16.60;62.59;100598.97;5068953;28;20402;-42
2023/09/16 08:00:49;;;;;;;1.70;0.70;;;;;;;16.46;62.42;100607.44;5075690;28;20044;-46
2023/09/16 08:03:15;;;;;;;3.00;1.23;;;;;;;16.38;62.51;100614.78;5071531;28;20056;-44
2023/09/16 08:05:41;;;;;;;11.27;1.52;;;;;;;16.34;62.75;100613.22;5058714;28;20053;-49
2023/09/16 08:08:07;;;;;;;7.97;0.98;;;;;;;16.37;62.76;100613.09;5089570;28;20040;-48
2023/09/16 08:10:32;;;;;;;4.20;0.98;;;;;;;16.41;62.62;100613.81;5069315;28;20043;-46
2023/09/16 08:12:58;;;;;;;4.00;0.80;;;;;;;16.23;62.43;100583.94;5067289;28;20084;-55
2023/09/16 08:15:24;;;;;;;1.45;0.80;;;;;;;16.18;62.56;100593.78;5080505;28;20051;-53
2023/09/16 08:17:50;;;;;;;2.28;0.98;;;;;;;16.29;62.52;100619.56;5073852;28;20051;-50
2023/09/16 08:20:18;;;;;;;3.53;1.05;;;;;;;16.33;62.02;100614.13;5072066;28;20055;-50
2023/09/16 08:22:44;;;;;;;4.10;0.82;;;;;;;16.48;62.18;100624.00;5069762;28;20103;-48
2023/09/16 08:25:10;;;;;;;2.35;0.85;;;;;;;16.56;61.80;100623.63;5067334;28;20559;-47
2023/09/16 08:27:36;;;;;;;2.05;0.82;;;;;;;16.70;61.24;100628.28;5079001;28;20048;-48
2023/09/16 08:30:02;;;;;;;2.33;0.80;;;;;;;16.85;60.79;100628.47;5066942;28;20128;-45
2023/09/16 08:32:30;;;;;;;1.25;0.90;;;;;;;16.90;60.07;100629.09;5078779;28;20040;-44
2023/09/16 08:34:56;;;;;;;2.25;0.75;;;;;;;16.98;59.52;100635.81;5069591;28;20089;-50
2023/09/16 08:37:23;;;;;;;2.00;0.70;;;;;;;17.02;59.43;100630.34;5083189;28;20032;-51
2023/09/16 08:39:48;;;;;;;1.45;0.80;;;;;;;17.06;59.10;100631.06;5065593;28;20047;-49
2023/09/16 08:42:22;;;;;;;2.15;0.80;;;;;;;17.08;58.81;100637.94;5071303;28;20037;-49
2023/09/16 08:44:51;;;;;;;1.17;0.70;;;;;;;17.04;58.51;100639.00;5059585;28;20048;-53
2023/09/16 08:47:40;;;;;;;1.77;0.60;;;;;;;17.01;58.63;100638.31;5076753;28;20040;-48
2023/09/16 08:50:08;;;;;;;5.93;1.00;;;;;;;16.94;58.81;100635.09;5067486;28;20147;-47
2023/09/16 08:52:55;;;;;;;3.05;0.75;;;;;;;17.02;58.91;100637.34;5094128;28;20043;-50
2023/09/16 08:55:21;;;;;;;2.25;0.70;;;;;;;17.05;58.80;100637.25;5071275;28;20512;-53
2023/09/16 08:58:14;;;;;;;4.53;1.00;;;;;;;17.18;58.57;100641.84;5079540;28;20118;-47
2023/09/16 09:00:40;;;;;;;12.32;1.50;;;;;;;17.32;58.23;100646.47;5061071;28;20427;-47
2023/09/16 09:03:06;;;;;;;8.00;1.30;;;;;;;17.26;57.77;100617.84;5080830;28;20036;-50
2023/09/16 09:05:33;;;;;;;6.82;1.58;;;;;;;17.48;57.82;100644.00;5078522;28;20063;-49
2023/09/16 09:07:59;;;;;;;3.75;1.00;;;;;;;17.41;57.25;100619.75;5080753;28;20043;-48
2023/09/16 09:10:26;;;;;;;8.35;2.55;;;;;;;17.61;56.88;100645.13;5064451;28;20044;-51
2023/09/16 09:12:52;;;;;;;5.35;1.95;;;;;;;17.57;56.92;100651.44;5080522;28;20047;-48
2023/09/16 09:15:18;;;;;;;3.97;1.85;;;;;;;17.33;57.08;100628.00;5079745;28;20134;-48
2023/09/16 09:17:51;;;;;;;3.95;1.30;;;;;;;17.32;57.04;100655.19;5075716;28;20115;-50
2023/09/16 09:20:23;;;;;;;5.80;1.63;;;;;;;16.90;57.49;100612.53;5035765;28;20160;-51
2023/09/16 09:22:51;;;;;;;6.38;1.65;;;;;;;17.13;57.59;100654.34;5069005;28;20044;-47
2023/09/16 09:25:25;;;;;;;4.55;1.70;;;;;;;17.00;57.68;100640.09;5078577;28;20044;-47
2023/09/16 09:27:52;;;;;;;3.80;1.90;;;;;;;17.19;57.57;100658.47;5076933;28;20075;-51
2023/09/16 09:30:27;;;;;;;3.65;1.25;;;;;;;17.10;57.46;100648.38;5072398;28;20068;-49
2023/09/16 09:32:57;;;;;;;5.25;1.90;;;;;;;17.22;57.37;100669.69;5067441;28;20432;-52
2023/09/16 09:35:25;;;;;;;8.18;2.53;;;;;;;17.22;57.51;100672.31;5072786;28;20137;-47
2023/09/16 09:37:51;;;;;;;4.47;1.65;;;;;;;17.23;57.32;100676.66;5068704;28;20040;-49
2023/09/16 09:40:17;;;;;;;1.80;1.20;;;;;;;17.20;56.97;100668.91;5071700;28;20048;-51
2023/09/16 09:42:49;;;;;;;4.38;1.20;;;;;;;17.20;56.92;100684.69;5063014;28;20035;-55
2023/09/16 09:45:18;;;;;;;2.70;1.13;;;;;;;16.88;56.93;100635.38;5072367;28;20052;-46
2023/09/16 09:47:44;;;;;;;1.95;1.30;;;;;;;16.84;57.09;100632.03;5081029;28;20048;-47
2023/09/16 09:50:15;;;;;;;3.05;1.05;;;;;;;17.02;57.00;100682.88;5052076;28;20040;-48
2023/09/16 09:52:48;;;;;;;3.78;1.40;;;;;;;16.99;56.96;100690.06;5063739;28;20427;-46
2023/09/16 09:55:19;;;;;;;2.53;1.10;;;;;;;16.97;56.76;100674.34;5078663;28;20817;-48
2023/09/16 09:57:45;;;;;;;2.65;1.05;;;;;;;16.86;56.39;100655.59;5068411;28;20124;-44
2023/09/16 10:00:16;;;;;;;2.60;1.20;;;;;;;16.97;56.28;100669.09;5055518;28;20051;-46
2023/09/16 10:02:43;;;;;;;2.85;1.20;;;;;;;17.10;56.42;100686.03;5079317;28;20070;-49
2023/09/16 10:05:17;;;;;;;2.38;1.05;;;;;;;17.09;56.44;100694.84;5091625;28;20078;-45
2023/09/16 10:07:44;;;;;;;2.67;1.58;;;;;;;16.90;56.29;100676.41;5069008;28;20049;-47
2023/09/16 10:10:18;;;;;;;3.47;1.00;;;;;;;17.06;56.26;100691.50;5074552;28;20044;-49
2023/09/16 10:12:45;;;;;;;3.28;1.25;;;;;;;17.06;56.05;100686.25;5066859;28;20076;-50
2023/09/16 10:15:11;;;;;;;1.80;1.13;;;;;;;16.90;56.24;100665.06;5069695;28;20436;-47
2023/09/16 10:17:37;;;;;;;4.88;1.23;;;;;;;17.03;55.84;100694.25;5073561;28;20040;-49
2023/09/16 10:20:04;;;;;;;5.28;2.55;;;;;;;17.00;56.24;100697.88;5056682;28;20037;-45
2023/09/16 10:22:30;;;;;;;4.00;1.70;;;;;;;17.00;56.25;100692.63;5060074;28;20098;-47
2023/09/16 10:24:56;;;;;;;1.70;1.00;;;;;;;17.07;56.08;100696.66;5048442;28;20118;-47
2023/09/16 10:27:23;;;;;;;2.78;0.98;;;;;;;17.15;55.63;100701.59;5060939;28;20484;-54
2023/09/16 10:29:49;;;;;;;2.90;0.80;;;;;;;17.20;55.32;100697.84;5067368;28;20040;-49
2023/09/16 10:32:16;;;;;;;3.40;0.90;;;;;;;17.27;54.75;100693.97;5070748;28;20511;-49
2023/09/16 10:34:45;;;;;;;5.38;1.30;;;;;;;17.28;54.63;100703.59;5050269;28;20047;-51
2023/09/16 10:37:15;;;;;;;3.05;1.15;;;;;;;17.00;54.59;100660.25;5051194;28;20583;-48
2023/09/16 10:39:41;;;;;;;3.63;0.82;;;;;;;17.24;54.51;100698.53;5068936;28;20040;-46
2023/09/16 10:42:08;;;;;;;1.65;0.93;;;;;;;17.33;54.48;100700.75;5074436;28;20132;-47
2023/09/16 10:44:35;;;;;;;2.22;1.00;;;;;;;17.15;54.42;100664.78;5076761;28;20052;-50
2023/09/16 10:47:04;;;;;;;2.15;1.02;;;;;;;17.25;54.11;100669.56;5057041;28;20049;-47
2023/09/16 10:49:30;;;;;;;;;;;;;;;17.44;53.98;100701.09;5078160;28;20059;-47
2023/09/16 10:52:02;;;;;;;3.75;0.77;;;;;;;17.22;53.96;100660.94;5075431;28;20004;-49
2023/09/16 10:54:37;;;;;;;3.58;0.77;;;;;;;17.55;53.81;100704.09;5073764;28;20456;-52
2023/09/16 10:57:11;;;;;;;2.03;0.80;;;;;;;17.56;53.12;100679.50;5064216;28;20036;-50
2023/09/16 10:59:37;;;;;;;1.38;0.63;;;;;;;17.84;52.73;100701.91;5061003;28;20232;-48
2023/09/16 11:02:22;;;;;;;1.50;0.80;;;;;;;19.53;49.99;100702.78;5064103;28;20036;-48
2023/09/16 11:04:47;;;;;;;6.70;1.23;;;;;;;22.94;44.39;100708.91;5065060;28;20054;-53
2023/09/16 11:07:14;;;;;;;2.20;1.10;;;;;;;24.34;41.49;100715.56;5045787;28;20484;-54
2023/09/16 11:09:40;;;;;;;3.67;1.27;;;;;;;24.17;40.75;100665.47;5057836;28;20045;-50
2023/09/16 11:12:07;;;;;;;4.25;1.50;;;;;;;23.82;41.31;100700.81;5071215;28;20416;-53
2023/09/16 11:14:32;;;;;;;1.30;0.90;;;;;;;23.45;41.37;100710.56;5067568;28;20055;-52
2023/09/16 11:17:02;;;;;;;1.90;1.10;;;;;;;24.21;39.83;100706.81;5048171;28;20029;-46
2023/09/16 11:19:29;;;;;;;5.30;1.27;;;;;;;24.79;38.79;100698.78;5064860;28;20097;-49
2023/09/16 11:21:55;;;;;;;2.70;0.93;;;;;;;24.29;39.00;100705.28;5063548;28;20032;-50
2023/09/16 11:24:21;;;;;;;2.30;0.98;;;;;;;23.83;39.12;100699.00;5068581;28;20128;-50
2023/09/16 11:26:51;;;;;;;8.05;1.70;;;;;;;23.23;39.70;100699.78;5044262;28;20486;-49